Time;durP1;ratioP1;P1;durP2;ratioP2;P2;SDS_P1;SDS_P2;PMS_P1;PMS_P2;Temp;Humidity;BMP_temperature;BMP_pressure;BME280_temperature;BME280_humidity;BME280_pressure;Samples;Min_cycle;Max_cycle;Signal;HPM_P1;HPM_P2
2023/07/31 04:01:59;;;;;;;3.40;2.10;;;15.60;99.90;;;;;;5176825;23;20661;-70
2023/07/31 04:04:26;;;;;;;2.73;2.63;;;15.60;99.90;;;;;;4908232;29;20483;-70
2023/07/31 04:06:52;;;;;;;1.53;1.53;;;15.60;99.90;;;;;;4913948;29;20532;-71
2023/07/31 04:09:19;;;;;;;1.73;1.73;;;15.60;99.90;;;;;;4914722;29;20502;-70
2023/07/31 04:11:46;;;;;;;2.33;2.23;;;15.60;99.90;;;;;;4913471;29;20525;-71
2023/07/31 04:14:12;;;;;;;1.57;1.53;;;15.60;99.90;;;;;;4902647;29;20478;-69
2023/07/31 04:16:39;;;;;;;2.60;2.50;;;15.60;99.90;;;;;;4904977;29;20822;-70
2023/07/31 04:19:07;;;;;;;4.63;2.40;;;15.60;99.90;;;;;;4902713;29;20598;-69
2023/07/31 04:21:34;;;;;;;2.67;2.30;;;15.60;99.90;;;;;;4896743;29;20573;-70
2023/07/31 04:24:00;;;;;;;2.13;2.03;;;15.60;99.90;;;;;;4897590;29;20474;-72
2023/07/31 04:26:27;;;;;;;2.90;2.30;;;15.60;99.90;;;;;;4905129;29;20573;-69
2023/07/31 04:28:53;;;;;;;2.63;2.53;;;15.50;99.90;;;;;;4897980;29;20470;-70
2023/07/31 04:31:20;;;;;;;4.20;3.50;;;15.50;99.90;;;;;;4899639;29;20497;-70
2023/07/31 04:33:47;;;;;;;2.60;2.50;;;15.50;99.90;;;;;;4903899;29;20470;-70
2023/07/31 04:36:15;;;;;;;2.03;2.03;;;15.50;99.90;;;;;;4897076;29;20471;-71
2023/07/31 04:38:41;;;;;;;2.03;1.93;;;15.60;99.90;;;;;;4898860;29;20486;-70
2023/07/31 04:41:08;;;;;;;2.10;2.00;;;15.50;99.90;;;;;;4902844;29;20494;-70
2023/07/31 04:43:35;;;;;;;2.53;2.30;;;15.50;99.90;;;;;;4911655;29;20474;-70
2023/07/31 04:46:01;;;;;;;1.60;1.60;;;15.50;99.90;;;;;;4897661;29;20479;-70
2023/07/31 04:48:28;;;;;;;1.77;1.70;;;15.50;99.90;;;;;;4898889;29;20464;-71
2023/07/31 04:50:55;;;;;;;1.63;1.53;;;15.50;99.90;;;;;;4897434;29;20487;-70
2023/07/31 04:53:23;;;;;;;1.83;1.73;;;15.40;99.90;;;;;;4903415;29;20471;-70
2023/07/31 04:55:49;;;;;;;1.90;1.90;;;15.40;99.90;;;;;;4904631;29;20856;-70
2023/07/31 04:58:16;;;;;;;2.30;2.17;;;15.40;99.90;;;;;;4904593;29;20498;-70
2023/07/31 05:00:43;;;;;;;1.37;1.37;;;15.40;99.90;;;;;;4902979;29;20502;-70
2023/07/31 05:03:10;;;;;;;2.40;1.70;;;15.40;99.90;;;;;;4900359;29;20471;-71
2023/07/31 05:05:37;;;;;;;2.73;2.63;;;15.40;99.90;;;;;;4890412;29;20483;-70
2023/07/31 05:08:04;;;;;;;2.43;2.33;;;15.40;99.90;;;;;;4899207;29;20471;-69
2023/07/31 05:10:32;;;;;;;1.07;1.07;;;15.40;99.90;;;;;;4896755;29;20566;-70
2023/07/31 05:12:59;;;;;;;1.97;1.97;;;15.40;99.90;;;;;;4910104;29;20515;-70
2023/07/31 05:15:25;;;;;;;1.70;1.70;;;15.40;99.90;;;;;;4899307;29;20470;-67
2023/07/31 05:17:52;;;;;;;2.30;2.13;;;15.40;99.90;;;;;;4896668;29;20497;-68
2023/07/31 05:20:19;;;;;;;3.47;3.37;;;15.50;99.90;;;;;;4896176;29;20459;-71
2023/07/31 05:22:45;;;;;;;1.83;1.73;;;15.50;99.90;;;;;;4903373;29;20505;-69
2023/07/31 05:25:12;;;;;;;1.73;1.67;;;15.50;99.90;;;;;;4895781;29;20786;-70
2023/07/31 05:27:40;;;;;;;6.83;1.83;;;15.50;99.90;;;;;;4894429;29;20472;-69
2023/07/31 05:30:08;;;;;;;1.47;1.47;;;15.50;99.90;;;;;;4903138;29;20462;-71
2023/07/31 05:32:34;;;;;;;1.17;1.17;;;15.50;99.90;;;;;;4904272;29;20510;-71
2023/07/31 05:35:01;;;;;;;1.87;1.77;;;15.50;99.90;;;;;;4899618;29;20477;-72
2023/07/31 05:37:28;;;;;;;1.63;1.53;;;15.60;99.90;;;;;;4899896;29;20970;-72
2023/07/31 05:39:54;;;;;;;2.40;2.30;;;15.60;99.90;;;;;;4906725;29;20501;-71
2023/07/31 05:42:21;;;;;;;2.57;2.37;;;15.70;99.90;;;;;;4907206;29;20487;-72
2023/07/31 05:44:49;;;;;;;2.03;1.93;;;15.70;99.90;;;;;;4900766;29;20497;-72
2023/07/31 05:47:19;;;;;;;1.30;1.30;;;15.80;99.90;;;;;;4898156;29;20478;-73
2023/07/31 05:49:46;;;;;;;1.90;1.90;;;15.80;99.90;;;;;;4905792;29;20527;-71
2023/07/31 05:52:12;;;;;;;1.43;1.43;;;15.80;99.90;;;;;;4899921;29;20502;-70
2023/07/31 05:54:39;;;;;;;1.33;1.33;;;15.80;99.90;;;;;;4909143;29;20470;-71
2023/07/31 05:57:06;;;;;;;1.60;1.60;;;15.90;99.90;;;;;;4898958;29;20475;-71
2023/07/31 05:59:33;;;;;;;2.30;2.30;;;16.00;99.90;;;;;;4912180;29;20493;-71
2023/07/31 06:02:01;;;;;;;1.50;1.50;;;15.90;99.90;;;;;;4866417;29;1043822;-70
2023/07/31 06:04:27;;;;;;;2.27;2.17;;;15.90;99.90;;;;;;4897998;29;20203;-70
2023/07/31 06:06:54;;;;;;;1.73;1.73;;;16.00;99.90;;;;;;4892959;29;20512;-70
2023/07/31 06:09:22;;;;;;;1.10;1.10;;;16.10;99.90;;;;;;4906126;29;20466;-70
2023/07/31 06:11:48;;;;;;;1.20;1.20;;;16.10;99.90;;;;;;4899319;29;21002;-71
2023/07/31 06:14:15;;;;;;;1.50;1.50;;;16.20;99.90;;;;;;4903306;29;20501;-71
2023/07/31 06:16:43;;;;;;;1.60;1.50;;;16.30;99.90;;;;;;4893452;29;20475;-71
2023/07/31 06:19:12;;;;;;;3.07;2.13;;;16.30;99.90;;;;;;4897643;29;20971;-71
2023/07/31 06:21:41;;;;;;;1.50;1.43;;;16.40;99.90;;;;;;4904284;29;20495;-71
2023/07/31 06:24:09;;;;;;;1.50;1.50;;;16.40;99.90;;;;;;4902265;29;20472;-71
2023/07/31 06:26:36;;;;;;;1.57;1.57;;;16.40;99.90;;;;;;4894830;29;20475;-71
2023/07/31 06:29:03;;;;;;;0.70;0.70;;;16.50;99.90;;;;;;4904567;29;20459;-71
2023/07/31 06:31:29;;;;;;;0.90;0.90;;;16.50;99.90;;;;;;4899153;29;20529;-71
2023/07/31 06:33:56;;;;;;;2.20;2.20;;;16.60;99.90;;;;;;4903110;29;20491;-70
2023/07/31 06:36:24;;;;;;;0.90;0.90;;;16.60;99.90;;;;;;4895227;29;20472;-72
2023/07/31 06:38:51;;;;;;;1.27;1.27;;;16.60;99.90;;;;;;4897689;29;20875;-69
2023/07/31 06:41:17;;;;;;;0.97;0.97;;;16.60;99.90;;;;;;4895766;29;20495;-70
2023/07/31 06:43:44;;;;;;;0.80;0.80;;;16.60;99.90;;;;;;4907783;29;20547;-70
2023/07/31 06:46:11;;;;;;;0.80;0.80;;;16.60;99.90;;;;;;4889356;29;20483;-72
2023/07/31 06:48:38;;;;;;;0.90;0.90;;;16.60;99.90;;;;;;4899184;29;20472;-70
2023/07/31 06:51:05;;;;;;;1.20;1.10;;;16.70;99.90;;;;;;4895918;29;20519;-70
2023/07/31 06:53:33;;;;;;;0.50;0.50;;;16.80;99.90;;;;;;4896174;29;20475;-71
2023/07/31 06:55:59;;;;;;;0.90;0.90;;;16.90;99.90;;;;;;4893950;29;20471;-71
2023/07/31 06:58:26;;;;;;;0.80;0.80;;;17.00;99.90;;;;;;4903425;29;20576;-71
2023/07/31 07:00:53;;;;;;;0.80;0.80;;;17.10;99.90;;;;;;4893349;29;20502;-72
2023/07/31 07:03:20;;;;;;;0.90;0.90;;;17.10;99.90;;;;;;4896835;29;20479;-72
2023/07/31 07:05:47;;;;;;;0.90;0.90;;;17.10;99.90;;;;;;4889971;29;20527;-71
2023/07/31 07:08:14;;;;;;;0.67;0.67;;;17.20;99.90;;;;;;4901089;29;20503;-70
2023/07/31 07:10:42;;;;;;;0.30;0.30;;;17.40;99.90;;;;;;4894063;29;20524;-70
2023/07/31 07:13:09;;;;;;;0.50;0.50;;;17.40;99.90;;;;;;4894659;29;20632;-71
2023/07/31 07:15:36;;;;;;;0.90;0.90;;;17.40;99.90;;;;;;4902529;29;20475;-71
2023/07/31 07:18:03;;;;;;;0.60;0.60;;;17.40;99.90;;;;;;4900367;29;20552;-69
2023/07/31 07:20:30;;;;;;;0.50;0.50;;;17.40;99.90;;;;;;4903210;29;20926;-72
2023/07/31 07:22:56;;;;;;;0.50;0.50;;;17.40;99.90;;;;;;4898796;29;20471;-71
2023/07/31 07:25:23;;;;;;;1.90;0.50;;;17.30;99.90;;;;;;4898883;29;20841;-70
2023/07/31 07:27:51;;;;;;;0.77;0.77;;;17.40;99.90;;;;;;4900458;29;20492;-70
2023/07/31 07:30:18;;;;;;;0.50;0.50;;;17.40;99.90;;;;;;4903118;29;20476;-71
2023/07/31 07:32:44;;;;;;;0.33;0.33;;;17.40;99.90;;;;;;4894358;29;20821;-71
2023/07/31 07:35:11;;;;;;;0.40;0.40;;;17.40;99.90;;;;;;4902228;29;20479;-70
2023/07/31 07:37:38;;;;;;;0.70;0.70;;;17.30;99.90;;;;;;4908346;29;21136;-71
2023/07/31 07:40:05;;;;;;;0.80;0.80;;;17.20;99.90;;;;;;4910003;29;20998;-71
2023/07/31 07:42:32;;;;;;;0.50;0.50;;;17.30;99.90;;;;;;4896753;29;20488;-71
2023/07/31 07:45:00;;;;;;;0.47;0.47;;;17.30;99.90;;;;;;4901543;29;20558;-70
2023/07/31 07:47:27;;;;;;;1.30;0.50;;;17.30;99.90;;;;;;4900567;29;20505;-70
2023/07/31 07:49:54;;;;;;;0.70;0.70;;;17.30;99.90;;;;;;4901198;29;20467;-71
2023/07/31 07:52:20;;;;;;;0.47;0.47;;;17.20;99.90;;;;;;4894487;29;20487;-72
2023/07/31 08:04:01;;;;;;;0.30;0.30;;;17.30;99.90;;;;;;4892804;29;20476;-69
2023/07/31 08:06:29;;;;;;;0.40;0.40;;;17.20;99.90;;;;;;4895085;29;20459;-69
2023/07/31 08:08:56;;;;;;;0.30;0.30;;;17.20;99.90;;;;;;4895478;29;20821;-70
2023/07/31 08:11:23;;;;;;;0.30;0.30;;;17.10;99.90;;;;;;4910118;23;20495;-71
2023/07/31 08:13:50;;;;;;;0.50;0.50;;;17.10;99.90;;;;;;4912981;29;20640;-69
2023/07/31 08:16:17;;;;;;;0.40;0.37;;;17.10;99.90;;;;;;4914108;29;20484;-70
2023/07/31 08:18:43;;;;;;;0.30;0.20;;;17.10;99.90;;;;;;4897561;29;21024;-70
2023/07/31 08:26:17;;;;;;;0.40;0.40;;;17.00;99.90;;;;;;4893190;29;20487;-69
2023/07/31 08:28:44;;;;;;;0.30;0.30;;;17.00;99.90;;;;;;4890017;29;20540;-68
2023/07/31 08:31:11;;;;;;;0.53;0.53;;;17.00;99.90;;;;;;4913626;23;20502;-71
2023/07/31 08:33:38;;;;;;;0.50;0.50;;;17.10;99.90;;;;;;4917541;29;20458;-70
2023/07/31 08:36:05;;;;;;;0.30;0.30;;;17.10;99.90;;;;;;4914218;29;20462;-70
2023/07/31 08:38:34;;;;;;;0.40;0.40;;;17.20;99.90;;;;;;4901971;29;20487;-68
2023/07/31 08:41:03;;;;;;;0.30;0.30;;;17.20;99.90;;;;;;4908920;23;20529;-69
2023/07/31 08:43:33;;;;;;;0.30;0.30;;;17.10;99.90;;;;;;4914041;29;20785;-70
2023/07/31 08:46:00;;;;;;;0.27;0.27;;;17.10;99.90;;;;;;4913224;29;20547;-70
2023/07/31 08:48:28;;;;;;;0.30;0.30;;;17.00;99.90;;;;;;4909249;29;20512;-70
2023/07/31 08:50:55;;;;;;;0.37;0.37;;;17.00;99.90;;;;;;4915159;23;20585;-70
2023/07/31 08:53:22;;;;;;;0.53;0.53;;;17.00;99.90;;;;;;4913513;29;20872;-70
2023/07/31 08:55:50;;;;;;;0.50;0.50;;;17.00;99.90;;;;;;4904530;29;20468;-70
2023/07/31 08:58:19;;;;;;;0.20;0.20;;;16.90;99.90;;;;;;4897858;29;20519;-70
2023/07/31 09:00:48;;;;;;;0.20;0.20;;;16.90;99.90;;;;;;4902567;23;20495;-70
2023/07/31 09:03:16;;;;;;;0.30;0.30;;;17.00;99.90;;;;;;4915054;29;20549;-70
2023/07/31 09:05:44;;;;;;;0.30;0.30;;;17.00;99.90;;;;;;4897387;29;20464;-71
2023/07/31 09:08:12;;;;;;;0.20;0.20;;;17.10;99.90;;;;;;4894955;29;20486;-71
2023/07/31 09:10:42;;;;;;;0.50;0.47;;;17.00;99.90;;;;;;4898803;23;20564;-69
2023/07/31 09:13:09;;;;;;;0.20;0.20;;;17.10;99.90;;;;;;4932396;29;20812;-68
2023/07/31 09:15:36;;;;;;;0.40;0.40;;;17.10;99.90;;;;;;4934242;29;20968;-68
2023/07/31 09:18:06;;;;;;;0.20;0.20;;;17.20;99.90;;;;;;4902869;29;20502;-70
2023/07/31 09:20:33;;;;;;;0.20;0.20;;;17.20;99.90;;;;;;4906020;23;21021;-70
2023/07/31 09:23:08;;;;;;;0.23;0.23;;;17.30;99.90;;;;;;4913145;29;20470;-71
2023/07/31 09:25:35;;;;;;;0.30;0.30;;;17.40;99.90;;;;;;4912610;29;20470;-71
2023/07/31 09:28:03;;;;;;;1.13;0.40;;;17.40;99.90;;;;;;4906307;29;20916;-70
2023/07/31 09:30:31;;;;;;;0.20;0.20;;;17.40;99.90;;;;;;4925984;23;20925;-70
2023/07/31 09:33:02;;;;;;;0.30;0.30;;;17.40;99.90;;;;;;4916898;29;20474;-69
2023/07/31 09:35:33;;;;;;;0.60;0.60;;;17.40;99.90;;;;;;4918807;29;20493;-69
2023/07/31 09:38:01;;;;;;;0.43;0.43;;;17.40;99.90;;;;;;4927384;29;20497;-68
2023/07/31 09:40:30;;;;;;;1.00;1.00;;;17.30;99.90;;;;;;4900113;29;20950;-69
2023/07/31 09:43:00;;;;;;;2.40;1.00;;;17.40;99.90;;;;;;4898540;29;20485;-71
2023/07/31 09:45:28;;;;;;;0.80;0.80;;;17.50;99.90;;;;;;4913536;23;20478;-69
2023/07/31 09:47:55;;;;;;;1.10;1.10;;;17.60;99.90;;;;;;4935170;29;20477;-69
2023/07/31 09:50:23;;;;;;;3.50;1.30;;;17.60;99.90;;;;;;4936423;29;20454;-68
2023/07/31 09:52:52;;;;;;;1.20;1.20;;;17.60;99.90;;;;;;4932927;29;20829;-69
2023/07/31 09:55:20;;;;;;;2.10;2.00;;;17.50;99.90;;;;;;4930943;29;20474;-69
2023/07/31 09:57:48;;;;;;;1.03;1.03;;;17.60;99.90;;;;;;4916397;29;20470;-69
2023/07/31 10:00:17;;;;;;;2.50;2.40;;;17.70;99.90;;;;;;4917148;29;20848;-70
2023/07/31 10:02:47;;;;;;;1.70;1.60;;;17.80;99.90;;;;;;4915110;29;20489;-71
2023/07/31 10:05:14;;;;;;;3.83;1.93;;;17.90;99.90;;;;;;4913702;29;20478;-68
2023/07/31 10:07:44;;;;;;;5.60;2.20;;;18.00;99.90;;;;;;4915911;29;20969;-70
2023/07/31 10:10:12;;;;;;;2.23;2.23;;;17.90;99.90;;;;;;4915870;29;20459;-70
2023/07/31 10:12:39;;;;;;;2.33;2.13;;;17.90;99.90;;;;;;4915540;29;20478;-69
2023/07/31 10:15:07;;;;;;;2.17;2.00;;;18.00;99.90;;;;;;4915912;29;20466;-69
2023/07/31 10:17:36;;;;;;;4.30;2.60;;;18.00;99.90;;;;;;4916501;29;20545;-70
2023/07/31 10:20:04;;;;;;;4.03;3.53;;;18.20;99.90;;;;;;4914861;29;20486;-69
2023/07/31 10:22:31;;;;;;;2.87;2.50;;;18.20;99.90;;;;;;4915503;29;20527;-69
2023/07/31 10:24:59;;;;;;;2.87;2.40;;;18.20;99.90;;;;;;4915364;29;20462;-69
2023/07/31 10:27:28;;;;;;;3.00;2.63;;;18.40;99.90;;;;;;4916666;29;20486;-69
2023/07/31 10:29:57;;;;;;;2.30;2.07;;;18.40;99.90;;;;;;4909152;29;20473;-70
2023/07/31 10:32:25;;;;;;;1.97;1.97;;;18.50;99.90;;;;;;4915188;29;20926;-68
2023/07/31 10:34:53;;;;;;;5.47;2.77;;;18.60;99.90;;;;;;4914118;29;20475;-69
2023/07/31 10:37:28;;;;;;;2.93;2.73;;;18.90;99.90;;;;;;4908283;29;20495;-69
2023/07/31 10:40:00;;;;;;;3.00;2.80;;;19.10;99.90;;;;;;4908752;29;20578;-69
2023/07/31 10:42:35;;;;;;;2.63;2.43;;;19.00;99.90;;;;;;4914403;29;20528;-70
2023/07/31 10:45:05;;;;;;;1.50;1.40;;;18.90;99.90;;;;;;4914631;29;20842;-70
2023/07/31 10:47:32;;;;;;;2.40;2.30;;;18.80;99.90;;;;;;4913750;29;20510;-69
2023/07/31 10:50:17;;;;;;;4.57;4.37;;;18.90;99.90;;;;;;4914542;29;20501;-69
2023/07/31 10:52:47;;;;;;;2.37;2.20;;;18.90;99.90;;;;;;4912282;29;20478;-69
2023/07/31 10:55:25;;;;;;;3.30;3.00;;;18.80;99.90;;;;;;4910815;29;20475;-69
2023/07/31 10:57:53;;;;;;;6.93;2.30;;;18.80;99.90;;;;;;4914685;29;20470;-69
2023/07/31 11:00:22;;;;;;;4.33;2.37;;;18.70;99.90;;;;;;4915052;29;20500;-68
2023/07/31 11:02:59;;;;;;;2.13;2.00;;;18.60;99.90;;;;;;4914939;29;20659;-70
2023/07/31 11:05:49;;;;;;;2.63;1.97;;;18.60;99.90;;;;;;4914431;29;20844;-69
2023/07/31 11:08:19;;;;;;;3.60;2.13;;;18.70;99.90;;;;;;4909430;29;20546;-69
2023/07/31 11:10:46;;;;;;;2.47;2.00;;;18.80;99.90;;;;;;4914361;29;20463;-70
2023/07/31 11:13:15;;;;;;;2.07;1.97;;;18.70;99.90;;;;;;4915231;29;20474;-69
2023/07/31 11:15:42;;;;;;;2.63;2.47;;;18.80;99.90;;;;;;4914718;29;20487;-70
2023/07/31 11:18:10;;;;;;;2.53;2.33;;;18.80;99.90;;;;;;4915215;29;20470;-68
2023/07/31 11:20:37;;;;;;;1.63;1.53;;;18.80;99.90;;;;;;4912748;29;20556;-68
2023/07/31 11:23:07;;;;;;;4.63;1.50;;;18.80;99.90;;;;;;4913762;29;20479;-69
2023/07/31 11:25:34;;;;;;;2.00;2.00;;;18.80;99.90;;;;;;4913309;29;20484;-70
2023/07/31 11:28:05;;;;;;;4.00;2.00;;;18.90;99.90;;;;;;4912318;29;20934;-69
2023/07/31 11:30:33;;;;;;;5.23;2.20;;;18.90;99.90;;;;;;4904853;29;20485;-72
2023/07/31 11:33:02;;;;;;;2.23;1.70;;;19.10;99.90;;;;;;4905977;29;20475;-69
2023/07/31 11:35:29;;;;;;;1.20;1.20;;;19.10;99.90;;;;;;4908234;29;20941;-69
2023/07/31 11:37:56;;;;;;;2.23;1.93;;;19.30;99.90;;;;;;4902074;29;20471;-72
2023/07/31 11:40:28;;;;;;;1.73;1.70;;;19.20;99.90;;;;;;4912944;29;20526;-68
2023/07/31 11:42:55;;;;;;;2.50;1.27;;;19.20;99.90;;;;;;4902564;29;20532;-70
2023/07/31 11:45:25;;;;;;;1.47;1.47;;;19.30;99.90;;;;;;4908522;29;20490;-69
2023/07/31 11:47:54;;;;;;;1.13;1.13;;;19.30;99.90;;;;;;4906176;29;20479;-70
2023/07/31 11:50:21;;;;;;;1.40;1.30;;;19.20;99.90;;;;;;4907380;29;20831;-70
2023/07/31 11:52:51;;;;;;;1.13;0.93;;;19.20;99.90;;;;;;4912155;29;20501;-69
2023/07/31 11:55:18;;;;;;;1.40;1.30;;;19.10;99.90;;;;;;4906260;29;20488;-71
2023/07/31 11:57:46;;;;;;;0.70;0.70;;;19.20;99.90;;;;;;4925740;29;20510;-71
2023/07/31 12:00:14;;;;;;;0.77;0.77;;;19.10;99.90;;;;;;4911087;29;20953;-70
2023/07/31 12:02:42;;;;;;;0.93;0.93;;;19.10;99.90;;;;;;4912356;29;20966;-70
2023/07/31 12:05:13;;;;;;;1.23;1.00;;;19.10;99.90;;;;;;4914460;29;20470;-69
2023/07/31 12:07:51;;;;;;;0.77;0.77;;;19.00;99.90;;;;;;4906502;29;20478;-70
2023/07/31 12:10:28;;;;;;;0.80;0.80;;;19.00;99.90;;;;;;4912137;29;20579;-69
2023/07/31 12:13:02;;;;;;;1.00;1.00;;;19.10;99.90;;;;;;4912345;29;20470;-71
2023/07/31 12:15:40;;;;;;;0.60;0.60;;;19.20;99.90;;;;;;4914567;29;20492;-65
2023/07/31 12:18:08;;;;;;;0.40;0.40;;;19.20;99.90;;;;;;4909364;29;21193;-69
2023/07/31 12:20:41;;;;;;;0.77;0.77;;;19.30;99.90;;;;;;4912595;29;20506;-70
2023/07/31 12:23:08;;;;;;;0.80;0.80;;;19.30;99.90;;;;;;4913289;29;20458;-70
2023/07/31 12:25:36;;;;;;;1.03;1.03;;;19.20;99.90;;;;;;4909588;29;20565;-70
2023/07/31 12:28:11;;;;;;;0.93;0.93;;;19.20;99.90;;;;;;4912989;29;20499;-70
2023/07/31 12:30:38;;;;;;;0.47;0.47;;;19.50;99.90;;;;;;4910855;29;20836;-70
2023/07/31 12:33:06;;;;;;;1.03;0.93;;;19.30;99.90;;;;;;4913264;29;20887;-70
2023/07/31 12:35:38;;;;;;;0.97;0.97;;;19.40;99.90;;;;;;4911089;29;20490;-71
2023/07/31 12:38:05;;;;;;;0.83;0.83;;;19.40;99.90;;;;;;4911877;29;20572;-65
2023/07/31 12:40:31;;;;;;;0.60;0.60;;;19.30;99.90;;;;;;4910050;29;21166;-70
2023/07/31 12:42:58;;;;;;;0.70;0.70;;;19.30;99.90;;;;;;4913202;29;20501;-70
2023/07/31 12:45:25;;;;;;;0.93;0.77;;;19.30;99.90;;;;;;4910271;29;20491;-70
2023/07/31 12:47:51;;;;;;;1.27;1.27;;;19.30;99.90;;;;;;4911001;29;20470;-65
2023/07/31 12:50:18;;;;;;;0.83;0.83;;;19.30;99.90;;;;;;4913294;29;20474;-69
2023/07/31 12:52:46;;;;;;;0.93;0.93;;;19.30;99.90;;;;;;4913315;29;20767;-69
2023/07/31 12:55:13;;;;;;;0.63;0.63;;;19.20;99.90;;;;;;4908847;29;20961;-68
2023/07/31 12:57:40;;;;;;;0.70;0.70;;;19.20;99.90;;;;;;4912020;29;20478;-69
2023/07/31 13:00:08;;;;;;;1.00;1.00;;;19.20;99.90;;;;;;4912760;29;20476;-69
2023/07/31 13:02:35;;;;;;;0.87;0.87;;;19.20;99.90;;;;;;4913891;29;20497;-70
2023/07/31 13:05:02;;;;;;;1.03;1.00;;;19.20;99.90;;;;;;4914929;29;20470;-70
2023/07/31 13:07:28;;;;;;;0.80;0.80;;;19.20;99.90;;;;;;4916272;29;20602;-70
2023/07/31 13:09:56;;;;;;;0.63;0.63;;;19.20;99.90;;;;;;4915807;29;20485;-70
2023/07/31 13:12:23;;;;;;;0.70;0.70;;;19.20;99.90;;;;;;4916347;29;20585;-70
2023/07/31 13:14:50;;;;;;;0.77;0.77;;;19.00;99.90;;;;;;4914237;29;20481;-69
2023/07/31 13:17:17;;;;;;;0.67;0.67;;;18.90;99.90;;;;;;4915141;29;20501;-70
2023/07/31 13:19:43;;;;;;;1.10;1.10;;;18.80;99.90;;;;;;4915889;29;20468;-69
2023/07/31 13:22:10;;;;;;;1.00;1.00;;;18.80;99.90;;;;;;4913155;29;20608;-69
2023/07/31 13:24:37;;;;;;;0.90;0.90;;;18.80;99.90;;;;;;4914499;29;20549;-70
2023/07/31 13:27:05;;;;;;;0.60;0.60;;;18.80;99.90;;;;;;4916060;29;20486;-70
2023/07/31 13:29:32;;;;;;;0.60;0.60;;;18.80;99.90;;;;;;4916409;29;20462;-70
2023/07/31 13:31:59;;;;;;;1.00;1.00;;;18.60;99.90;;;;;;4915981;29;20484;-70
2023/07/31 13:34:26;;;;;;;0.77;0.77;;;18.70;99.90;;;;;;4916707;29;20463;-70
2023/07/31 13:36:55;;;;;;;0.67;0.67;;;18.70;99.90;;;;;;4913972;29;20993;-70
2023/07/31 13:39:22;;;;;;;1.10;1.10;;;18.60;99.90;;;;;;4914096;29;20475;-72
2023/07/31 13:41:49;;;;;;;0.43;0.43;;;18.60;99.90;;;;;;4913507;29;20490;-69
2023/07/31 13:44:17;;;;;;;0.60;0.60;;;18.60;99.90;;;;;;4916032;29;20470;-64
2023/07/31 13:46:43;;;;;;;0.43;0.43;;;18.50;99.90;;;;;;4913713;29;20494;-70
2023/07/31 13:49:10;;;;;;;0.73;0.73;;;18.40;99.90;;;;;;4912865;29;20574;-69
2023/07/31 13:51:39;;;;;;;2.17;0.73;;;18.40;99.90;;;;;;4933977;29;20457;-69
2023/07/31 13:54:06;;;;;;;0.77;0.77;;;18.50;99.90;;;;;;4915666;29;21022;-70
2023/07/31 13:56:33;;;;;;;0.67;0.67;;;18.50;99.90;;;;;;4916088;29;20568;-69
2023/07/31 13:59:01;;;;;;;0.90;0.83;;;18.50;99.90;;;;;;4916547;29;20463;-70
2023/07/31 14:01:29;;;;;;;0.53;0.53;;;18.50;99.90;;;;;;4916587;29;20530;-69
2023/07/31 14:03:55;;;;;;;1.80;1.70;;;18.50;99.90;;;;;;4915288;29;20471;-69
2023/07/31 14:06:22;;;;;;;0.40;0.40;;;18.60;99.90;;;;;;4914581;29;20488;-70
2023/07/31 14:08:49;;;;;;;0.33;0.33;;;18.60;99.90;;;;;;4915975;29;20458;-70
2023/07/31 14:11:16;;;;;;;0.40;0.40;;;18.50;99.90;;;;;;4916051;29;20474;-69
2023/07/31 14:13:42;;;;;;;0.73;0.73;;;18.40;99.90;;;;;;4914674;29;20478;-70
2023/07/31 14:16:09;;;;;;;0.30;0.30;;;18.40;99.90;;;;;;4915708;29;20494;-70
2023/07/31 14:18:37;;;;;;;0.50;0.50;;;18.50;99.90;;;;;;4916193;29;20463;-69
2023/07/31 14:21:04;;;;;;;0.80;0.80;;;18.50;99.90;;;;;;4915856;29;20491;-69
2023/07/31 14:23:31;;;;;;;0.57;0.57;;;18.40;99.90;;;;;;4913760;29;20476;-69
2023/07/31 14:25:57;;;;;;;1.23;0.80;;;18.40;99.90;;;;;;4915068;29;20486;-69
2023/07/31 14:28:24;;;;;;;0.50;0.40;;;18.30;99.90;;;;;;4915803;29;20811;-68
2023/07/31 14:30:51;;;;;;;0.40;0.40;;;18.30;99.90;;;;;;4916518;29;20490;-70
2023/07/31 14:33:17;;;;;;;1.13;1.13;;;18.40;99.90;;;;;;4915448;29;20519;-70
2023/07/31 14:35:45;;;;;;;0.80;0.80;;;18.30;99.90;;;;;;4915250;29;20493;-70
2023/07/31 14:38:12;;;;;;;1.60;0.90;;;18.30;99.90;;;;;;4915876;29;20478;-69
2023/07/31 14:40:39;;;;;;;0.80;0.80;;;18.40;99.90;;;;;;4914897;29;20462;-71
2023/07/31 14:43:06;;;;;;;1.30;1.30;;;18.30;99.90;;;;;;4914808;29;20493;-70
2023/07/31 14:45:32;;;;;;;1.17;1.17;;;18.30;99.90;;;;;;4915575;29;20493;-69
2023/07/31 14:47:59;;;;;;;0.83;0.83;;;18.40;99.90;;;;;;4916012;29;20467;-71
2023/07/31 14:50:26;;;;;;;1.13;1.13;;;18.40;99.90;;;;;;4915638;29;20469;-69
2023/07/31 14:52:54;;;;;;;0.60;0.60;;;18.40;99.90;;;;;;4912760;29;20845;-70
2023/07/31 14:55:21;;;;;;;1.40;1.40;;;18.40;99.90;;;;;;4929405;29;20826;-71
2023/07/31 14:57:48;;;;;;;1.37;1.37;;;18.40;99.90;;;;;;4934333;29;20458;-69
2023/07/31 15:00:15;;;;;;;0.90;0.90;;;18.40;99.90;;;;;;4935048;29;20462;-69
2023/07/31 15:02:42;;;;;;;3.07;2.00;;;18.40;99.90;;;;;;4934732;29;20489;-70
2023/07/31 15:05:09;;;;;;;0.87;0.87;;;18.40;99.90;;;;;;4913739;29;20474;-69
2023/07/31 15:07:36;;;;;;;1.10;1.10;;;18.40;99.90;;;;;;4915700;29;20478;-69
2023/07/31 15:10:05;;;;;;;0.87;0.87;;;18.40;99.90;;;;;;4915351;29;20474;-69
2023/07/31 15:12:32;;;;;;;1.37;1.37;;;18.40;99.90;;;;;;4912881;29;20566;-70
2023/07/31 15:14:59;;;;;;;1.13;1.13;;;18.40;99.90;;;;;;4922179;29;20476;-69
2023/07/31 15:17:25;;;;;;;1.13;1.13;;;18.40;99.90;;;;;;4915295;29;20495;-70
2023/07/31 15:19:52;;;;;;;1.17;1.17;;;18.30;99.90;;;;;;4915694;29;20558;-70
2023/07/31 15:22:19;;;;;;;1.33;1.33;;;18.30;99.90;;;;;;4913894;29;20562;-71
2023/07/31 15:24:45;;;;;;;1.93;1.83;;;18.40;99.90;;;;;;4910990;29;20839;-69
2023/07/31 15:27:13;;;;;;;1.50;1.50;;;18.40;99.90;;;;;;4914418;29;20502;-70
2023/07/31 15:29:40;;;;;;;1.77;1.77;;;18.30;99.90;;;;;;4915112;29;20462;-69
2023/07/31 15:32:07;;;;;;;2.23;2.20;;;18.30;99.90;;;;;;4915176;29;20458;-68
2023/07/31 15:34:34;;;;;;;1.30;1.30;;;18.30;99.90;;;;;;4909569;29;20461;-69
2023/07/31 15:37:01;;;;;;;1.10;1.10;;;18.30;99.90;;;;;;4915070;29;20483;-68
2023/07/31 15:39:27;;;;;;;1.67;1.67;;;18.30;99.90;;;;;;4915068;29;20470;-69
2023/07/31 15:41:54;;;;;;;2.10;1.90;;;18.30;99.90;;;;;;4914745;29;20881;-69
2023/07/31 15:44:22;;;;;;;2.00;1.90;;;18.20;99.90;;;;;;4914457;29;20482;-69
2023/07/31 15:46:49;;;;;;;1.60;1.50;;;18.30;99.90;;;;;;4923966;23;20502;-71
2023/07/31 15:49:16;;;;;;;1.40;1.40;;;18.30;99.90;;;;;;4899392;29;20490;-72
2023/07/31 15:51:42;;;;;;;2.63;1.60;;;18.40;99.90;;;;;;4897458;29;20471;-72
2023/07/31 15:54:09;;;;;;;2.03;1.93;;;18.40;99.90;;;;;;4888319;29;21139;-69
2023/07/31 15:56:36;;;;;;;2.03;1.53;;;18.40;99.90;;;;;;4892899;29;20502;-72
2023/07/31 15:59:02;;;;;;;1.30;1.20;;;18.40;99.90;;;;;;4878633;29;20472;-71
2023/07/31 16:01:29;;;;;;;2.30;2.27;;;18.40;99.90;;;;;;4878519;29;20464;-71
2023/07/31 16:03:56;;;;;;;2.00;2.00;;;18.40;99.90;;;;;;4881779;29;20514;-71
2023/07/31 16:06:23;;;;;;;1.13;1.13;;;18.40;99.90;;;;;;4879282;29;20491;-70
2023/07/31 16:08:50;;;;;;;1.63;1.53;;;18.40;99.90;;;;;;4861677;29;20480;-70
2023/07/31 16:11:16;;;;;;;1.17;1.17;;;18.40;99.90;;;;;;4859595;29;20469;-70
2023/07/31 16:13:43;;;;;;;1.90;1.90;;;18.40;99.90;;;;;;4871498;29;20486;-70
2023/07/31 16:16:10;;;;;;;1.87;1.77;;;18.40;99.90;;;;;;4884201;29;20468;-70
2023/07/31 16:18:38;;;;;;;1.30;1.30;;;18.40;99.90;;;;;;4878275;29;20460;-71
2023/07/31 16:21:04;;;;;;;1.50;1.50;;;18.40;99.90;;;;;;4877667;29;20480;-71
2023/07/31 16:23:31;;;;;;;2.77;1.60;;;18.40;99.90;;;;;;4892321;29;21137;-71
2023/07/31 16:25:58;;;;;;;1.50;1.50;;;18.40;99.90;;;;;;4895788;29;20947;-70
2023/07/31 16:28:24;;;;;;;1.27;1.27;;;18.40;99.90;;;;;;4896632;29;20488;-71
2023/07/31 16:30:51;;;;;;;1.63;1.63;;;18.40;99.90;;;;;;4890934;29;21168;-71
2023/07/31 16:33:18;;;;;;;2.10;2.10;;;18.50;99.90;;;;;;4884704;29;20476;-70
2023/07/31 16:35:46;;;;;;;1.80;1.73;;;18.50;99.90;;;;;;4876292;29;20471;-71
2023/07/31 16:38:13;;;;;;;1.67;1.67;;;18.50;99.90;;;;;;4879756;29;20560;-71
2023/07/31 16:40:39;;;;;;;2.60;2.60;;;18.40;99.90;;;;;;4879498;29;20586;-71
2023/07/31 16:43:07;;;;;;;1.10;1.10;;;18.40;99.90;;;;;;4886090;29;21029;-71
2023/07/31 16:45:34;;;;;;;1.50;1.50;;;18.40;99.90;;;;;;4888293;29;20460;-71
2023/07/31 16:48:02;;;;;;;1.97;1.97;;;18.40;99.90;;;;;;4878372;29;20496;-71
2023/07/31 16:50:28;;;;;;;1.83;1.73;;;18.40;99.90;;;;;;4893732;29;20498;-71
2023/07/31 16:52:56;;;;;;;1.70;1.70;;;18.30;99.90;;;;;;4899138;29;20464;-71
2023/07/31 16:55:23;;;;;;;1.60;1.60;;;18.30;99.90;;;;;;4887110;29;20472;-71
2023/07/31 16:57:50;;;;;;;1.87;1.83;;;18.30;99.90;;;;;;4879975;29;20518;-70
2023/07/31 17:00:17;;;;;;;1.93;1.87;;;18.30;99.90;;;;;;4880454;29;20487;-71
2023/07/31 17:02:43;;;;;;;2.23;2.10;;;18.30;99.90;;;;;;4880178;29;20496;-71
2023/07/31 17:05:10;;;;;;;2.40;2.30;;;18.30;99.90;;;;;;4885052;29;20494;-71